Moodys, Oklahoma
Current Conditions -  °F | °C
As of 5:55 PM on Saturday 22 Nov 2014 (Local Time) from KTQH Reporting Station
Haze Haze  
Wind Chill: 52°   Ceiling: 500
Heat Index: 52°   Visibility: 4mi
Dew Point: 52°   Wind: 13mph
Humidity: 100%   Direction: 150°SSE
Pressure: 29.89"   Gusts: 23mph
Location:  36.03°N, 94.96°W
Report Text: KTQH 222355Z AUTO 15011G20KT 4SM BR BKN005 BKN010 OVC015 11/11 A2989 RMK AO2 P0008
Loading
Personal Weather Stations






























Interactive Weather Map New forecast layout! Learn more

10-Day Weather Forecast

Advertisements
Track Severe Weather on mobile